Time;durP1;ratioP1;P1;durP2;ratioP2;P2;SDS_P1;SDS_P2;PMS_P1;PMS_P2;Temp;Humidity;BMP_temperature;BMP_pressure;BME280_temperature;BME280_humidity;BME280_pressure;Samples;Min_cycle;Max_cycle;Signal;HPM_P1;HPM_P2
2022/09/17 00:01:46;;;;;;;;;;;;;;;17.71;100.00;100012.94;5044740;28;19925;-82
2022/09/17 00:04:14;;;;;;;;;;;;;;;17.62;100.00;100016.16;5038133;28;19925;-79
2022/09/17 00:06:49;;;;;;;;;;;;;;;17.50;100.00;100023.66;5046384;28;20424;-82
2022/09/17 00:09:15;;;;;;;;;;;;;;;17.65;100.00;100028.22;5040961;28;19975;-84
2022/09/17 00:11:43;;;;;;;;;;;;;;;17.76;100.00;100026.31;5042561;28;19929;-82
2022/09/17 00:14:13;;;;;;;;;;;;;;;17.75;100.00;100035.47;5040362;28;19982;-80
2022/09/17 00:16:41;;;;;;;;;;;;;;;17.73;100.00;100034.94;5042456;28;19933;-81
2022/09/17 00:19:13;;;;;;;;;;;;;;;17.79;100.00;100037.38;5044313;28;19928;-82
2022/09/17 00:21:42;;;;;;;;;;;;;;;17.80;100.00;100032.81;5044056;28;20258;-81
2022/09/17 00:24:14;;;;;;;;;;;;;;;17.58;100.00;100022.34;5044495;28;20364;-79
2022/09/17 00:26:46;;;;;;;;;;;;;;;17.32;100.00;100033.03;5049372;28;19929;-80
2022/09/17 00:29:13;;;;;;;;;;;;;;;17.48;100.00;100031.16;5031911;28;19925;-78
2022/09/17 00:31:42;;;;;;;;;;;;;;;17.34;100.00;100028.22;5044260;28;19999;-78
2022/09/17 00:34:10;;;;;;;;;;;;;;;17.53;100.00;100028.50;5047271;28;19925;-82
2022/09/17 00:36:39;;;;;;;;;;;;;;;17.59;100.00;100016.69;5047836;28;20301;-78
2022/09/17 00:39:11;;;;;;;;;;;;;;;17.37;100.00;100010.78;5046738;28;20384;-78
2022/09/17 00:41:43;;;;;;;;;;;;;;;17.19;100.00;100012.13;5038984;28;20297;-79
2022/09/17 00:44:28;;;;;;;;;;;;;;;17.37;100.00;100019.63;5045711;28;19925;-79
2022/09/17 00:46:57;;;;;;;;;;;;;;;17.74;100.00;100012.38;5046595;28;19983;-80
2022/09/17 00:49:28;;;;;;;;;;;;;;;17.84;100.00;100007.03;5047422;28;20380;-80
2022/09/17 00:52:02;;;;;;;;;;;;;;;17.74;100.00;100009.69;5046246;28;19928;-83
2022/09/17 00:54:29;;;;;;;;;;;;;;;17.36;100.00;100009.97;5045385;28;19931;-78
2022/09/17 00:56:57;;;;;;;;;;;;;;;17.66;100.00;100008.34;5052291;28;20281;-79
2022/09/17 00:59:29;;;;;;;;;;;;;;;17.90;100.00;100011.31;5043194;28;19991;-79
2022/09/17 01:01:58;;;;;;;;;;;;;;;17.83;100.00;100002.72;5043896;28;20071;-79
2022/09/17 01:04:30;;;;;;;;;;;;;;;17.82;100.00;100003.78;5045844;28;19925;-79
2022/09/17 01:07:04;;;;;;;;;;;;;;;17.19;100.00;100001.38;5047481;28;19929;-84
2022/09/17 01:09:39;;;;;;;;;;;;;;;17.49;100.00;100005.13;5045829;28;19925;-79
2022/09/17 01:12:17;;;;;;;;;;;;;;;17.51;100.00;100008.34;5045868;28;19925;-78
2022/09/17 01:14:53;;;;;;;;;;;;;;;17.47;100.00;100007.28;5045528;28;19925;-78
2022/09/17 01:17:27;;;;;;;;;;;;;;;17.11;100.00;100007.25;5045364;28;19932;-80
2022/09/17 01:20:20;;;;;;;;;;;;;;;17.28;100.00;100012.41;5044969;28;19935;-82
2022/09/17 01:22:57;;;;;;;;;;;;;;;17.49;100.00;100007.81;5039910;28;19929;-79
2022/09/17 01:25:25;;;;;;;;;;;;;;;17.47;100.00;100007.28;5054400;28;19936;-79
2022/09/17 01:28:12;;;;;;;;;;;;;;;17.88;100.00;100004.59;5043393;28;20259;-82
2022/09/17 01:31:01;;;;;;;;;;;;;;;17.56;100.00;100003.78;5049409;28;20399;-83
2022/09/17 01:33:32;;;;;;;;;;;;;;;17.89;100.00;100004.34;5047074;28;20373;-81
2022/09/17 01:36:06;;;;;;;;;;;;;;;17.96;100.00;100001.38;5046385;28;20288;-78
2022/09/17 01:38:39;;;;;;;;;;;;;;;18.01;100.00;99988.72;5043461;28;19932;-78
2022/09/17 01:41:08;;;;;;;;;;;;;;;17.91;100.00;99988.72;5045836;28;19924;-79
2022/09/17 01:43:48;;;;;;;;;;;;;;;17.78;100.00;99979.34;5047510;28;19975;-82
2022/09/17 01:46:22;;;;;;;;;;;;;;;18.00;100.00;99980.91;5038343;28;19936;-79
2022/09/17 01:48:57;;;;;;;;;;;;;;;18.00;100.00;99975.53;5045581;28;19933;-81
2022/09/17 01:51:32;;;;;;;;;;;;;;;17.97;100.00;99981.47;5028510;28;19936;-79
2022/09/17 01:54:03;;;;;;;;;;;;;;;17.62;100.00;99978.56;5040884;28;19929;-82
2022/09/17 01:56:34;;;;;;;;;;;;;;;17.45;100.00;99966.47;5046433;28;20444;-82
2022/09/17 01:59:09;;;;;;;;;;;;;;;17.78;100.00;99957.06;5046957;28;19925;-84
2022/09/17 02:01:39;;;;;;;;;;;;;;;17.73;100.00;99954.34;5145651;23;19932;-79
2022/09/17 02:04:08;;;;;;;;;;;;;;;17.75;100.00;99954.91;5044198;28;19936;-80
2022/09/17 02:06:37;;;;;;;;;;;;;;;17.98;100.00;99964.28;5040945;28;20088;-82
2022/09/17 02:09:06;;;;;;;;;;;;;;;17.92;100.00;99954.63;5045598;28;19958;-82
2022/09/17 02:11:35;;;;;;;;;;;;;;;17.89;100.00;99955.97;5042272;28;20378;-82
2022/09/17 02:14:05;;;;;;;;;;;;;;;17.75;100.00;99957.59;5038538;28;20016;-82
2022/09/17 02:16:34;;;;;;;;;;;;;;;17.82;100.00;99958.97;5039118;28;19959;-82
2022/09/17 02:19:05;;;;;;;;;;;;;;;17.81;100.00;99962.69;5047300;28;19932;-79
2022/09/17 02:21:39;;;;;;;;;;;;;;;17.80;100.00;99953.03;5045933;28;19944;-81
2022/09/17 02:24:11;;;;;;;;;;;;;;;17.81;100.00;99943.91;5042310;28;20554;-83
2022/09/17 02:26:43;;;;;;;;;;;;;;;17.96;100.00;99932.31;5034000;28;20309;-83
2022/09/17 02:29:13;;;;;;;;;;;;;;;17.31;100.00;99934.81;5046252;28;19925;-83
2022/09/17 02:31:40;;;;;;;;;;;;;;;17.36;100.00;99937.50;5044267;28;19929;-83
2022/09/17 02:34:10;;;;;;;;;;;;;;;17.56;100.00;99934.00;5046246;28;19931;-79
2022/09/17 02:36:36;;;;;;;;;;;;;;;17.29;100.00;99931.59;5039706;28;19940;-78
2022/09/17 02:39:04;;;;;;;;;;;;;;;17.65;100.00;99930.75;5044877;28;19925;-80
2022/09/17 02:41:36;;;;;;;;;;;;;;;17.65;100.00;99923.50;5052073;28;19925;-80
2022/09/17 02:44:08;;;;;;;;;;;;;;;17.56;100.00;99928.63;5045354;28;19925;-80
2022/09/17 02:46:45;;;;;;;;;;;;;;;17.57;100.00;99929.41;5038047;28;19929;-82
2022/09/17 02:49:20;;;;;;;;;;;;;;;17.74;100.00;99934.50;5042246;28;19979;-81
2022/09/17 02:51:51;;;;;;;;;;;;;;;17.59;100.00;99941.50;5047454;28;19986;-83
2022/09/17 02:54:22;;;;;;;;;;;;;;;17.70;100.00;99933.41;5045594;28;19968;-83
2022/09/17 02:56:53;;;;;;;;;;;;;;;17.69;100.00;99931.81;5047990;28;19925;-79
2022/09/17 02:59:24;;;;;;;;;;;;;;;17.62;100.00;99926.75;5048231;28;19925;-79
2022/09/17 03:01:53;;;;;;;;;;;;;;;17.35;100.00;99924.34;5037643;28;19931;-79
2022/09/17 03:04:22;;;;;;;;;;;;;;;17.70;100.00;99901.19;5043059;28;19925;-82
2022/09/17 03:06:51;;;;;;;;;;;;;;;17.41;100.00;99909.84;5046818;28;20342;-83
2022/09/17 03:09:18;;;;;;;;;;;;;;;17.24;100.00;99918.19;5040927;28;20347;-79
2022/09/17 03:11:45;;;;;;;;;;;;;;;17.51;100.00;99909.81;5041593;28;19929;-82
2022/09/17 03:14:11;;;;;;;;;;;;;;;17.65;100.00;99901.22;5041653;28;20372;-80
2022/09/17 03:16:38;;;;;;;;;;;;;;;17.67;100.00;99888.31;5044863;28;19932;-82
2022/09/17 03:19:04;;;;;;;;;;;;;;;17.27;100.00;99892.69;5045866;28;19925;-82
2022/09/17 03:21:32;;;;;;;;;;;;;;;17.53;100.00;99882.72;5044147;28;19985;-79
2022/09/17 03:23:59;;;;;;;;;;;;;;;17.21;100.00;99886.50;5043151;28;20349;-79
2022/09/17 03:26:26;;;;;;;;;;;;;;;17.31;100.00;99897.25;5035765;28;19929;-84
2022/09/17 03:28:53;;;;;;;;;;;;;;;17.54;100.00;99895.84;5045367;28;20015;-79
2022/09/17 03:31:20;;;;;;;;;;;;;;;17.53;100.00;99882.72;5044026;28;19928;-79
2022/09/17 03:33:46;;;;;;;;;;;;;;;17.78;100.00;99871.13;5046590;28;20347;-82
2022/09/17 03:36:13;;;;;;;;;;;;;;;17.74;100.00;99860.09;5043771;28;19932;-78
2022/09/17 03:38:41;;;;;;;;;;;;;;;17.60;100.00;99859.06;5039996;28;19925;-79
2022/09/17 03:41:07;;;;;;;;;;;;;;;17.36;100.00;99848.91;5042796;28;19975;-82
2022/09/17 03:43:34;;;;;;;;;;;;;;;17.55;100.00;99845.66;5045251;28;19978;-82
2022/09/17 03:46:00;;;;;;;;;;;;;;;17.80;100.00;99840.25;5015323;28;19930;-80
2022/09/17 03:48:28;;;;;;;;;;;;;;;17.72;100.00;99839.97;5044535;28;19987;-82
2022/09/17 03:50:55;;;;;;;;;;;;;;;17.76;100.00;99832.97;5045126;28;19935;-82
2022/09/17 03:53:22;;;;;;;;;;;;;;;17.89;100.00;99832.41;5044994;28;20428;-82
2022/09/17 03:55:50;;;;;;;;;;;;;;;17.88;100.00;99836.16;5043683;28;19925;-82
2022/09/17 03:58:17;;;;;;;;;;;;;;;17.85;100.00;99831.34;5042389;28;20383;-83
2022/09/17 04:00:44;;;;;;;;;;;;;;;17.92;100.00;99834.56;5036069;28;19925;-79
2022/09/17 04:03:10;;;;;;;;;;;;;;;17.93;100.00;99821.91;5044317;28;19936;-79
2022/09/17 04:05:37;;;;;;;;;;;;;;;17.93;100.00;99814.66;5044807;28;20407;-79
2022/09/17 04:08:03;;;;;;;;;;;;;;;18.00;100.00;99804.44;5039132;28;19940;-79
2022/09/17 04:10:30;;;;;;;;;;;;;;;18.08;100.00;99797.66;5048214;28;19925;-83
2022/09/17 04:12:58;;;;;;;;;;;;;;;18.02;100.00;99790.72;5047261;28;20296;-82
2022/09/17 04:15:25;;;;;;;;;;;;;;;18.15;100.00;99795.44;5045482;28;20431;-79
2022/09/17 04:17:54;;;;;;;;;;;;;;;18.02;100.00;99793.41;5051636;28;19936;-82
2022/09/17 04:20:21;;;;;;;;;;;;;;;17.82;100.00;99805.03;5038437;28;20361;-83
2022/09/17 04:22:48;;;;;;;;;;;;;;;18.00;100.00;99817.03;5047426;28;19983;-78
2022/09/17 04:25:14;;;;;;;;;;;;;;;18.03;100.00;99820.00;5042829;28;19924;-79
2022/09/17 04:27:41;;;;;;;;;;;;;;;17.92;100.00;99828.38;5046488;28;20368;-78
2022/09/17 04:30:09;;;;;;;;;;;;;;;18.28;100.00;99826.31;5044664;28;19926;-81
2022/09/17 04:32:36;;;;;;;;;;;;;;;18.45;100.00;99817.84;5045381;28;20410;-79
2022/09/17 04:35:03;;;;;;;;;;;;;;;18.52;100.00;99805.72;5046148;28;19932;-81
2022/09/17 04:37:29;;;;;;;;;;;;;;;18.55;100.00;99801.66;5041129;28;19932;-78
2022/09/17 04:39:56;;;;;;;;;;;;;;;18.52;100.00;99796.84;5042907;28;19932;-83
2022/09/17 04:42:23;;;;;;;;;;;;;;;18.20;100.00;99813.44;5034315;28;19925;-79
2022/09/17 04:44:49;;;;;;;;;;;;;;;18.56;100.00;99818.59;5036393;28;19995;-78
2022/09/17 04:47:17;;;;;;;;;;;;;;;18.69;100.00;99813.34;5035065;28;19979;-78
2022/09/17 04:49:44;;;;;;;;;;;;;;;18.66;100.00;99808.53;5038615;28;19995;-81
2022/09/17 04:52:10;;;;;;;;;;;;;;;18.83;100.00;99802.78;5042908;28;19925;-78
2022/09/17 04:54:37;;;;;;;;;;;;;;;18.90;100.00;99789.00;5048353;28;19986;-82
2022/09/17 04:57:04;;;;;;;;;;;;;;;18.81;100.00;99802.25;5044726;28;19999;-79
2022/09/17 04:59:30;;;;;;;;;;;;;;;18.83;100.00;99800.09;5041544;28;20004;-81
2022/09/17 05:01:57;;;;;;;;;;;;;;;18.94;100.00;99806.19;5045820;28;20309;-78
2022/09/17 05:04:25;;;;;;;;;;;;;;;19.21;100.00;99797.56;5046916;28;19925;-78
2022/09/17 05:06:51;;;;;;;;;;;;;;;19.33;100.00;99799.88;5044992;28;20337;-82
2022/09/17 05:09:18;;;;;;;;;;;;;;;19.09;100.00;99806.06;5043528;28;19989;-81
2022/09/17 05:11:45;;;;;;;;;;;;;;;19.47;100.00;99792.72;5044340;28;19925;-79
2022/09/17 05:14:12;;;;;;;;;;;;;;;19.47;100.00;99795.41;5043729;28;19975;-78
2022/09/17 05:16:39;;;;;;;;;;;;;;;19.41;100.00;99791.16;5044644;28;19932;-79
2022/09/17 05:19:06;;;;;;;;;;;;;;;19.53;100.00;99799.66;5050027;28;20285;-78
2022/09/17 05:21:34;;;;;;;;;;;;;;;19.62;100.00;99789.84;5045416;28;19931;-82
2022/09/17 05:24:01;;;;;;;;;;;;;;;19.52;100.00;99791.88;5046471;28;20896;-78
2022/09/17 05:26:28;;;;;;;;;;;;;;;19.67;100.00;99789.03;5046687;28;20055;-78
2022/09/17 05:28:55;;;;;;;;;;;;;;;19.92;100.00;99787.09;5047222;28;19933;-82
2022/09/17 05:31:21;;;;;;;;;;;;;;;19.81;100.00;99781.00;5036938;28;19933;-82
2022/09/17 05:33:48;;;;;;;;;;;;;;;19.90;100.00;99784.66;5035168;28;19964;-78
2022/09/17 05:36:14;;;;;;;;;;;;;;;19.96;100.00;99790.78;5030307;28;20020;-81
2022/09/17 05:38:42;;;;;;;;;;;;;;;19.40;100.00;99800.34;5036774;28;19924;-78
2022/09/17 05:41:09;;;;;;;;;;;;;;;19.90;100.00;99787.34;5032252;28;19933;-81
2022/09/17 05:43:36;;;;;;;;;;;;;;;19.71;100.00;99800.00;5031842;28;19925;-83
2022/09/17 05:46:02;;;;;;;;;;;;;;;20.34;100.00;99792.41;5033114;28;19985;-81
2022/09/17 05:48:29;;;;;;;;;;;;;;;20.25;100.00;99785.25;5041687;28;19929;-78
2022/09/17 05:50:56;;;;;;;;;;;;;;;20.34;100.00;99794.28;5031183;28;19931;-78
2022/09/17 05:53:22;;;;;;;;;;;;;;;20.79;100.00;99783.88;5037520;28;20327;-81
2022/09/17 05:55:51;;;;;;;;;;;;;;;20.83;100.00;99782.19;5046530;28;19928;-81
2022/09/17 05:58:18;;;;;;;;;;;;;;;21.07;100.00;99783.94;5045535;28;19940;-79
2022/09/17 06:00:45;;;;;;;;;;;;;;;20.75;100.00;99782.88;5045709;28;19990;-81
2022/09/17 06:03:12;;;;;;;;;;;;;;;20.96;100.00;99775.22;5045540;28;19925;-83
2022/09/17 06:05:39;;;;;;;;;;;;;;;21.06;100.00;99764.25;5042569;28;20344;-80
2022/09/17 06:08:06;;;;;;;;;;;;;;;21.28;100.00;99758.94;5044973;28;20361;-81
2022/09/17 06:10:32;;;;;;;;;;;;;;;21.20;100.00;99772.34;5045389;28;20352;-78
2022/09/17 06:13:00;;;;;;;;;;;;;;;20.67;100.00;99775.47;5040668;28;19995;-78
2022/09/17 06:15:27;;;;;;;;;;;;;;;20.32;100.00;99781.09;5039566;28;19925;-79
2022/09/17 06:17:54;;;;;;;;;;;;;;;20.94;100.00;99783.63;5039008;28;19971;-79
2022/09/17 06:20:21;;;;;;;;;;;;;;;21.13;100.00;99782.75;5040250;28;19933;-79
2022/09/17 06:22:47;;;;;;;;;;;;;;;21.50;100.00;99763.66;5039422;28;20261;-78
2022/09/17 06:25:14;;;;;;;;;;;;;;;21.32;100.00;99764.53;5028240;28;19987;-82
2022/09/17 06:27:41;;;;;;;;;;;;;;;21.60;100.00;99759.16;5034358;28;20369;-80
2022/09/17 06:30:09;;;;;;;;;;;;;;;21.64;100.00;99763.66;5041042;28;19929;-79
2022/09/17 06:32:36;;;;;;;;;;;;;;;21.66;100.00;99756.03;5040551;28;19928;-79
2022/09/17 06:35:02;;;;;;;;;;;;;;;21.75;100.00;99763.44;5043197;28;19983;-81
2022/09/17 06:37:29;;;;;;;;;;;;;;;21.70;100.00;99753.53;5046347;28;19982;-78
2022/09/17 06:39:56;;;;;;;;;;;;;;;21.60;100.00;99764.53;5042804;28;19991;-81
2022/09/17 06:42:23;;;;;;;;;;;;;;;21.79;100.00;99765.25;5040475;28;19982;-81
2022/09/17 06:44:49;;;;;;;;;;;;;;;21.89;100.00;99767.72;5043073;28;20023;-80
2022/09/17 06:47:17;;;;;;;;;;;;;;;21.91;100.00;99772.81;5039311;28;19990;-81
2022/09/17 06:49:44;;;;;;;;;;;;;;;22.04;100.00;99769.28;5036593;28;19979;-79
2022/09/17 06:52:10;;;;;;;;;;;;;;;21.65;100.00;99773.34;5041573;28;19925;-81
2022/09/17 06:54:37;;;;;;;;;;;;;;;21.95;100.00;99777.31;5032417;28;19925;-82
2022/09/17 06:57:05;;;;;;;;;;;;;;;22.10;100.00;99786.97;5040920;28;20352;-79
2022/09/17 06:59:32;;;;;;;;;;;;;;;22.02;100.00;99787.69;5045024;28;19929;-78
2022/09/17 07:01:58;;;;;;;;;;;;;;;22.20;100.00;99791.38;5035650;28;19987;-82
2022/09/17 07:04:26;;;;;;;;;;;;;;;22.13;100.00;99782.88;5039593;28;19925;-79
2022/09/17 07:06:53;;;;;;;;;;;;;;;22.49;100.00;99790.19;5035810;28;19988;-79
2022/09/17 07:09:19;;;;;;;;;;;;;;;22.34;100.00;99781.31;5040159;28;19990;-79
2022/09/17 07:11:46;;;;;;;;;;;;;;;22.30;100.00;99785.75;5038581;28;19991;-78
2022/09/17 07:14:13;;;;;;;;;;;;;;;22.34;100.00;99780.53;5043978;28;19925;-82
2022/09/17 07:16:39;;;;;;;;;;;;;;;22.25;100.00;99782.34;5041825;28;19929;-78
2022/09/17 07:19:06;;;;;;;;;;;;;;;22.13;100.00;99789.06;5043454;28;19982;-82
2022/09/17 07:21:34;;;;;;;;;;;;;;;22.46;100.00;99777.28;5042188;28;19998;-79
2022/09/17 07:24:01;;;;;;;;;;;;;;;22.59;100.00;99770.97;5040356;28;19935;-82
2022/09/17 07:26:28;;;;;;;;;;;;;;;22.69;100.00;99778.03;5039423;28;19936;-82
2022/09/17 07:28:54;;;;;;;;;;;;;;;22.80;100.00;99772.06;5043270;28;19925;-87
2022/09/17 07:31:22;;;;;;;;;;;;;;;22.86;100.00;99778.94;5039913;28;20366;-84
2022/09/17 07:33:48;;;;;;;;;;;;;;;23.05;100.00;99786.84;5045145;28;20450;-78
2022/09/17 07:36:16;;;;;;;;;;;;;;;22.99;100.00;99792.72;5044706;28;19925;-80
2022/09/17 07:38:44;;;;;;;;;;;;;;;23.07;100.00;99784.66;5036851;28;19928;-82
2022/09/17 07:41:12;;;;;;;;;;;;;;;23.19;100.00;99778.66;5051216;28;19950;-79
2022/09/17 07:43:39;;;;;;;;;;;;;;;23.04;100.00;99770.94;5043065;28;20372;-80
2022/09/17 07:46:06;;;;;;;;;;;;;;;23.68;100.00;99759.66;5042265;28;20254;-78
2022/09/17 07:48:33;;;;;;;;;;;;;;;23.89;100.00;99760.66;5040343;28;20331;-82
2022/09/17 07:50:59;;;;;;;;;;;;;;;23.76;100.00;99759.72;5038414;28;19925;-79
2022/09/17 07:53:27;;;;;;;;;;;;;;;23.80;100.00;99757.16;5044186;28;19925;-82
2022/09/17 07:55:55;;;;;;;;;;;;;;;24.05;100.00;99757.47;5042953;28;19925;-78
2022/09/17 07:58:22;;;;;;;;;;;;;;;24.44;100.00;99754.59;5039978;28;19983;-79
2022/09/17 08:00:49;;;;;;;;;;;;;;;24.57;100.00;99765.59;5046982;28;19941;-80
2022/09/17 08:03:18;;;;;;;;;;;;;;;24.50;100.00;99774.25;5040653;28;19929;-81
2022/09/17 08:05:48;;;;;;;;;;;;;;;24.62;100.00;99760.81;5036328;28;19928;-82
2022/09/17 08:08:15;;;;;;;;;;;;;;;24.76;100.00;99754.41;5044434;28;19983;-81
2022/09/17 08:10:41;;;;;;;;;;;;;;;24.78;100.00;99757.56;5043603;28;19925;-82
2022/09/17 08:13:09;;;;;;;;;;;;;;;24.50;100.00;99776.16;5030712;28;19935;-81
2022/09/17 08:15:36;;;;;;;;;;;;;;;24.72;100.00;99770.53;5035264;28;20356;-78
2022/09/17 08:18:04;;;;;;;;;;;;;;;24.75;100.00;99775.34;5043235;28;19933;-77
2022/09/17 08:20:33;;;;;;;;;;;;;;;24.77;100.00;99764.13;5034176;28;20396;-81
2022/09/17 08:23:01;;;;;;;;;;;;;;;24.81;100.00;99768.59;5043106;28;19991;-79
2022/09/17 08:25:28;;;;;;;;;;;;;;;24.74;100.00;99776.44;5040829;28;19935;-81
2022/09/17 08:27:55;;;;;;;;;;;;;;;24.51;100.00;99778.56;5042862;28;19994;-79
2022/09/17 08:30:24;;;;;;;;;;;;;;;24.91;100.00;99776.41;5042613;28;19925;-82
2022/09/17 08:32:53;;;;;;;;;;;;;;;25.38;100.00;99767.44;5039855;28;19925;-78
2022/09/17 08:35:19;;;;;;;;;;;;;;;25.66;100.00;99762.31;5041374;28;20341;-81
2022/09/17 08:37:46;;;;;;;;;;;;;;;25.93;100.00;99763.78;5046143;28;19955;-79
2022/09/17 08:40:21;;;;;;;;;;;;;;;25.56;100.00;99752.59;5044126;28;19936;-82
2022/09/17 08:42:52;;;;;;;;;;;;;;;25.15;100.00;99764.19;5034960;28;19924;-81
2022/09/17 08:45:25;;;;;;;;;;;;;;;25.59;100.00;99772.91;5042851;28;19936;-81
2022/09/17 08:47:54;;;;;;;;;;;;;;;26.21;100.00;99768.66;5042191;28;20372;-83
2022/09/17 08:50:26;;;;;;;;;;;;;;;26.00;100.00;99774.13;5039110;28;19925;-81
2022/09/17 08:53:00;;;;;;;;;;;;;;;25.92;100.00;99767.59;5043328;28;20411;-78
2022/09/17 08:55:33;;;;;;;;;;;;;;;25.98;100.00;99773.63;5050439;28;20380;-79
2022/09/17 08:58:06;;;;;;;;;;;;;;;26.40;100.00;99766.22;5042807;28;20349;-77
2022/09/17 09:00:42;;;;;;;;;;;;;;;26.31;100.00;99762.78;5045492;28;19925;-78
2022/09/17 09:03:21;;;;;;;;;;;;;;;26.71;100.00;99754.09;5046657;28;19929;-82
2022/09/17 09:05:48;;;;;;;;;;;;;;;26.95;100.00;99764.25;5040957;28;20278;-78
2022/09/17 09:08:18;;;;;;;;;;;;;;;26.61;100.00;99768.94;5047469;28;20399;-82
2022/09/17 09:10:49;;;;;;;;;;;;;;;26.76;100.00;99772.94;5041280;28;20288;-82
2022/09/17 09:13:18;;;;;;;;;;;;;;;26.39;100.00;99782.91;5039306;28;20006;-81
2022/09/17 09:15:47;;;;;;;;;;;;;;;26.36;100.00;99781.66;5045560;28;20091;-77
2022/09/17 09:18:21;;;;;;;;;;;;;;;26.32;100.00;99775.25;5047023;28;20365;-81
2022/09/17 09:20:54;;;;;;;;;;;;;;;26.63;100.00;99790.41;5024875;28;19940;-78
2022/09/17 09:23:27;;;;;;;;;;;;;;;26.66;100.00;99789.72;5045607;28;19925;-79
2022/09/17 09:25:55;;;;;;;;;;;;;;;26.55;100.00;99778.44;5041592;28;19925;-79
2022/09/17 09:28:35;;;;;;;;;;;;;;;26.76;100.00;99788.50;5045676;28;19925;-81
2022/09/17 09:31:09;;;;;;;;;;;;;;;27.02;100.00;99782.75;5043005;28;19984;-81
2022/09/17 09:33:39;;;;;;;;;;;;;;;26.95;100.00;99780.59;5045767;28;19933;-77
2022/09/17 09:36:12;;;;;;;;;;;;;;;26.79;100.00;99774.22;5038769;28;19936;-81
2022/09/17 09:38:40;;;;;;;;;;;;;;;27.02;100.00;99777.28;5035979;28;19939;-82
2022/09/17 09:41:09;;;;;;;;;;;;;;;26.50;100.00;99782.16;5044371;28;19925;-78
2022/09/17 09:43:39;;;;;;;;;;;;;;;26.43;100.00;99778.38;5047138;28;19925;-82
2022/09/17 09:46:21;;;;;;;;;;;;;;;26.44;100.00;99778.03;5041401;28;19987;-81
2022/09/17 09:48:54;;;;;;;;;;;;;;;26.48;100.00;99778.97;5041047;28;20358;-82
2022/09/17 09:51:31;;;;;;;;;;;;;;;26.57;100.00;99776.19;5039781;28;19932;-81
2022/09/17 09:54:11;;;;;;;;;;;;;;;26.35;100.00;99774.59;5045170;28;20388;-78
2022/09/17 09:56:45;;;;;;;;;;;;;;;26.35;100.00;99765.63;5044268;28;20011;-78
2022/09/17 09:59:16;;;;;;;;;;;;;;;26.40;100.00;99763.50;5046451;28;19979;-81
2022/09/17 10:01:43;;;;;;;;;;;;;;;26.40;100.00;99758.06;5040630;28;19936;-82
2022/09/17 10:04:17;;;;;;;;;;;;;;;26.63;100.00;99768.63;5044995;28;20365;-82
2022/09/17 10:06:45;;;;;;;;;;;;;;;26.90;100.00;99769.91;5042666;28;20016;-82
2022/09/17 10:09:13;;;;;;;;;;;;;;;26.87;100.00;99768.66;5041828;28;19979;-82
2022/09/17 10:11:39;;;;;;;;;;;;;;;26.74;100.00;99767.03;5044750;28;19932;-82
2022/09/17 10:14:28;;;;;;;;;;;;;;;26.27;100.00;99775.50;5045827;28;19925;-79
2022/09/17 10:17:11;;;;;;;;;;;;;;;26.13;100.00;99777.69;5044971;28;19996;-81
2022/09/17 10:19:41;;;;;;;;;;;;;;;26.15;100.00;99764.56;5040265;28;19991;-79
2022/09/17 10:22:24;;;;;;;;;;;;;;;26.21;100.00;99774.91;5045818;28;19932;-82
2022/09/17 10:24:52;;;;;;;;;;;;;;;26.01;100.00;99772.97;5043488;28;19925;-78
2022/09/17 10:27:20;;;;;;;;;;;;;;;26.24;97.76;99776.16;5043102;28;19928;-82
2022/09/17 10:29:50;;;;;;;;;;;;;;;26.11;100.00;99783.44;5044570;28;19936;-82
2022/09/17 10:32:21;;;;;;;;;;;;;;;26.11;100.00;99785.38;5044173;28;19925;-83
2022/09/17 10:35:03;;;;;;;;;;;;;;;26.22;100.00;99786.56;5041401;28;19979;-82
2022/09/17 10:37:41;;;;;;;;;;;;;;;26.36;100.00;99789.81;5046543;28;19929;-78
2022/09/17 10:40:28;;;;;;;;;;;;;;;26.13;100.00;99777.69;5046638;28;19925;-81
2022/09/17 10:43:09;;;;;;;;;;;;;;;26.48;100.00;99786.34;5046440;28;20007;-78
2022/09/17 10:45:41;;;;;;;;;;;;;;;26.21;100.00;99791.22;5045165;28;19932;-82
2022/09/17 10:48:20;;;;;;;;;;;;;;;26.20;100.00;99792.38;5046176;28;19924;-78
2022/09/17 10:50:50;;;;;;;;;;;;;;;26.30;100.00;99791.16;5037438;28;19925;-81
2022/09/17 10:53:17;;;;;;;;;;;;;;;26.02;100.00;99788.16;5045572;28;19925;-78
2022/09/17 10:55:46;;;;;;;;;;;;;;;26.19;100.00;99789.97;5044014;28;19929;-78
2022/09/17 10:58:24;;;;;;;;;;;;;;;26.06;100.00;99807.34;5046097;28;19932;-78
2022/09/17 11:00:55;;;;;;;;;;;;;;;25.97;100.00;99794.59;5020699;28;19995;-81
2022/09/17 11:03:40;;;;;;;;;;;;;;;25.96;100.00;99789.47;5040831;28;19932;-79
2022/09/17 11:06:31;;;;;;;;;;;;;;;25.94;100.00;99802.66;5042150;28;19986;-81
2022/09/17 11:09:04;;;;;;;;;;;;;;;26.07;100.00;99806.22;5044344;28;20380;-82
2022/09/17 11:11:39;;;;;;;;;;;;;;;26.07;100.00;99784.47;5045439;28;20368;-78
2022/09/17 11:14:14;;;;;;;;;;;;;;;26.06;100.00;99799.19;5041383;28;19929;-79
2022/09/17 11:16:53;;;;;;;;;;;;;;;26.00;100.00;99795.88;5040039;28;20434;-78
2022/09/17 11:19:25;;;;;;;;;;;;;;;26.00;100.00;99807.56;5039111;28;19929;-80
2022/09/17 11:22:01;;;;;;;;;;;;;;;25.94;100.00;99803.44;5042368;28;20013;-78
2022/09/17 11:24:44;;;;;;;;;;;;;;;26.00;100.00;99812.19;5043318;28;19925;-78
2022/09/17 11:27:15;;;;;;;;;;;;;;;25.84;100.00;99825.59;5042115;28;20414;-81
2022/09/17 11:29:55;;;;;;;;;;;;;;;25.87;100.00;99833.09;5043729;28;19929;-78
2022/09/17 11:32:33;;;;;;;;;;;;;;;25.53;100.00;99842.19;5043833;28;19925;-81
2022/09/17 11:35:06;;;;;;;;;;;;;;;25.71;100.00;99857.28;5038534;28;20411;-82
2022/09/17 11:37:37;;;;;;;;;;;;;;;25.28;100.00;99874.56;5042459;28;20320;-79
2022/09/17 11:40:06;;;;;;;;;;;;;;;25.34;100.00;99888.78;5046253;28;19924;-80
2022/09/17 11:42:38;;;;;;;;;;;;;;;25.42;100.00;99893.41;5045309;28;19928;-81
2022/09/17 11:45:11;;;;;;;;;;;;;;;25.52;100.00;99903.13;5040162;28;19924;-82
2022/09/17 11:47:42;;;;;;;;;;;;;;;25.66;100.00;99901.00;5043078;28;20365;-78
2022/09/17 11:50:14;;;;;;;;;;;;;;;25.39;100.00;99901.38;5035676;28;19933;-82
2022/09/17 11:52:44;;;;;;;;;;;;;;;25.34;100.00;99911.31;5044058;28;19933;-78
2022/09/17 11:55:18;;;;;;;;;;;;;;;25.46;100.00;99907.13;5045060;28;19986;-77
2022/09/17 11:57:47;;;;;;;;;;;;;;;25.46;100.00;99897.06;5036195;28;19925;-78
2022/09/17 12:00:17;;;;;;;;;;;;;;;25.63;100.00;99901.66;5045103;28;19925;-78
2022/09/17 12:02:51;;;;;;;;;;;;;;;25.15;100.00;99912.81;5044168;28;19960;-79
2022/09/17 12:05:21;;;;;;;;;;;;;;;25.42;100.00;99915.16;5038724;28;19956;-79
2022/09/17 12:07:53;;;;;;;;;;;;;;;25.44;100.00;99920.25;5040509;28;19924;-82
2022/09/17 12:10:37;;;;;;;;;;;;;;;25.22;100.00;99907.69;5043496;28;19932;-82
2022/09/17 12:13:14;;;;;;;;;;;;;;;25.17;100.00;99903.22;5043776;28;19930;-81
2022/09/17 12:15:45;;;;;;;;;;;;;;;25.41;100.00;99894.50;5042307;28;20331;-79
2022/09/17 12:18:26;;;;;;;;;;;;;;;25.58;100.00;99889.00;5041568;28;20048;-81
2022/09/17 12:20:54;;;;;;;;;;;;;;;25.12;100.00;99882.44;5036524;28;19976;-84
2022/09/17 12:23:27;;;;;;;;;;;;;;;25.08;100.00;99870.63;5040571;28;19932;-80
2022/09/17 12:26:00;;;;;;;;;;;;;;;25.07;100.00;99862.78;5044643;28;19928;-81
2022/09/17 12:28:32;;;;;;;;;;;;;;;24.80;100.00;99836.78;5034760;28;20051;-79
2022/09/17 12:31:07;;;;;;;;;;;;;;;24.49;100.00;99856.78;5043823;28;20349;-79
2022/09/17 12:33:36;;;;;;;;;;;;;;;24.47;100.00;99844.66;5037815;28;19932;-79
2022/09/17 12:36:10;;;;;;;;;;;;;;;24.34;100.00;99862.66;5045811;28;20350;-79
2022/09/17 12:38:47;;;;;;;;;;;;;;;24.14;100.00;99853.22;5036641;28;19971;-81
2022/09/17 12:41:18;;;;;;;;;;;;;;;24.14;100.00;99853.22;5044838;28;19925;-80
2022/09/17 12:44:13;;;;;;;;;;;;;;;23.64;100.00;99867.91;5044182;28;19932;-80
2022/09/17 12:46:56;;;;;;;;;;;;;;;23.80;100.00;99853.97;5015630;28;19987;-78
2022/09/17 12:49:32;;;;;;;;;;;;;;;23.73;100.00;99863.34;5041280;28;20016;-78
2022/09/17 12:52:04;;;;;;;;;;;;;;;24.45;100.00;99839.56;5044285;28;19932;-80